createdAt,value
2023-04-28T00:01:14.376Z,95104.28
2023-04-28T00:03:41.471Z,95090.22
2023-04-28T00:06:08.617Z,95079.31
2023-04-28T00:08:35.208Z,95084.66
2023-04-28T00:11:01.820Z,95079.19
2023-04-28T00:13:28.341Z,95091.41
2023-04-28T00:15:55.050Z,95079.59
2023-04-28T00:18:22.142Z,95074.69
2023-04-28T00:20:48.754Z,95081.72
2023-04-28T00:23:16.054Z,95066.75
2023-04-28T00:25:42.575Z,95065.59
2023-04-28T00:28:09.075Z,95067.81
2023-04-28T00:30:35.704Z,95073.13
2023-04-28T00:33:02.268Z,95063.13
2023-04-28T00:35:28.776Z,95068.88
2023-04-28T00:37:55.502Z,95059.97
2023-04-28T00:40:22.205Z,95058.59
2023-04-28T00:42:48.837Z,95060.19
2023-04-28T00:45:15.677Z,95062.06
2023-04-28T00:47:42.502Z,95056.81
2023-04-28T00:50:10.649Z,95064.03
2023-04-28T00:52:39.170Z,95047.72
2023-04-28T00:55:07.045Z,95050.88
2023-04-28T00:57:34.343Z,95060.41
2023-04-28T01:00:01.344Z,95060.22
2023-04-28T01:02:30.193Z,95060.41
2023-04-28T01:04:58.232Z,95055.91
2023-04-28T01:07:24.847Z,95059.31
2023-04-28T01:09:51.748Z,95056.41
2023-04-28T01:12:18.298Z,95054.84
2023-04-28T01:14:45.279Z,95051.88
2023-04-28T01:17:12.212Z,95052.63
2023-04-28T01:19:38.939Z,95044.59
2023-04-28T01:22:05.517Z,95033.66
2023-04-28T01:24:32.099Z,95034.00
2023-04-28T01:26:58.687Z,95028.56
2023-04-28T01:29:25.658Z,95040.09
2023-04-28T01:31:52.247Z,95024.56
2023-04-28T01:34:18.893Z,95029.69
2023-04-28T01:36:46.115Z,95038.78
2023-04-28T01:39:12.656Z,95040.53
2023-04-28T01:41:39.213Z,95033.84
2023-04-28T01:44:07.578Z,95036.72
2023-04-28T01:46:34.892Z,95035.25
2023-04-28T01:49:01.747Z,95038.88
2023-04-28T01:51:28.309Z,95023.69
2023-04-28T01:53:54.856Z,95033.13
2023-04-28T01:56:21.501Z,95025.53
2023-04-28T01:58:48.042Z,95032.88
2023-04-28T02:01:14.664Z,95034.69
2023-04-28T02:03:41.420Z,95029.25
2023-04-28T02:06:08.103Z,95030.97
2023-04-28T02:08:34.722Z,95026.16
2023-04-28T02:11:01.804Z,95016.75
2023-04-28T02:13:28.488Z,95027.44
2023-04-28T02:15:55.107Z,95030.34
2023-04-28T02:18:24.711Z,95035.06
2023-04-28T02:20:51.465Z,95042.94
2023-04-28T02:23:18.055Z,95042.94
2023-04-28T02:25:44.624Z,95042.31
2023-04-28T02:28:11.220Z,95038.34
2023-04-28T02:30:37.708Z,95031.38
2023-04-28T02:33:04.413Z,95029.50
2023-04-28T02:35:31.248Z,95023.63
2023-04-28T02:37:57.822Z,95016.69
2023-04-28T02:40:24.474Z,95026.50
2023-04-28T02:42:51.099Z,95030.78
2023-04-28T02:45:17.742Z,95027.84
2023-04-28T02:47:44.323Z,95037.56
2023-04-28T02:50:11.379Z,95034.81
2023-04-28T02:52:38.223Z,95033.13
2023-04-28T02:55:05.428Z,95037.91
2023-04-28T02:57:31.949Z,95039.31
2023-04-28T02:59:58.567Z,95025.16
2023-04-28T03:02:25.275Z,95025.00
2023-04-28T03:04:52.038Z,95024.63
2023-04-28T03:07:18.687Z,95029.25
2023-04-28T03:09:46.371Z,95021.41
2023-04-28T03:12:12.865Z,95039.53
2023-04-28T03:14:39.334Z,95030.06
2023-04-28T03:17:05.900Z,95029.88
2023-04-28T03:19:33.418Z,95024.28
2023-04-28T03:21:59.968Z,95031.19
2023-04-28T03:24:26.814Z,95031.72
2023-04-28T03:26:53.577Z,95034.50
2023-04-28T03:29:20.257Z,95029.22
2023-04-28T03:31:46.790Z,95029.69
2023-04-28T03:34:13.362Z,95023.44
2023-04-28T03:36:39.879Z,95023.53
2023-04-28T03:39:06.391Z,95034.50
2023-04-28T03:41:33.045Z,95024.34
2023-04-28T03:43:59.512Z,95016.56
2023-04-28T03:46:26.246Z,95034.50
2023-04-28T03:48:53.637Z,95019.97
2023-04-28T03:51:20.267Z,95023.38
2023-04-28T03:53:46.937Z,95024.16
2023-04-28T03:56:13.479Z,95029.28
2023-04-28T03:58:40.088Z,95034.41
2023-04-28T04:01:06.584Z,95031.84
2023-04-28T04:03:33.292Z,95034.28
2023-04-28T04:06:00.015Z,95031.78
2023-04-28T04:08:26.704Z,95037.81
2023-04-28T04:10:54.827Z,95040.03
2023-04-28T04:13:22.511Z,95038.34
2023-04-28T04:15:50.577Z,95034.03
2023-04-28T04:18:17.124Z,95032.25
2023-04-28T04:20:43.629Z,95025.84
2023-04-28T04:23:10.198Z,95035.41
2023-04-28T04:25:36.810Z,95026.38
2023-04-28T04:28:03.627Z,95018.56
2023-04-28T04:30:30.133Z,95024.69
2023-04-28T04:32:56.758Z,95019.47
2023-04-28T04:35:23.482Z,95009.97
2023-04-28T04:37:51.126Z,95015.16
2023-04-28T04:40:17.648Z,95022.72
2023-04-28T04:42:44.205Z,95031.31
2023-04-28T04:45:11.019Z,95027.19
2023-04-28T04:47:37.973Z,95032.81
2023-04-28T04:50:05.437Z,95031.63
2023-04-28T04:52:32.109Z,95032.53
2023-04-28T04:54:58.751Z,95042.66
2023-04-28T04:57:25.949Z,95040.53
2023-04-28T04:59:52.512Z,95043.72
2023-04-28T05:02:19.188Z,95036.13
2023-04-28T05:04:46.148Z,95042.19
2023-04-28T05:07:13.846Z,95044.31
2023-04-28T05:09:40.404Z,95038.25
2023-04-28T05:12:07.089Z,95047.47
2023-04-28T05:14:33.644Z,95046.84
2023-04-28T05:17:00.450Z,95049.56
2023-04-28T05:19:27.035Z,95038.31
2023-04-28T05:21:55.073Z,95038.59
2023-04-28T05:24:23.832Z,95047.47
2023-04-28T05:26:51.927Z,95045.06
2023-04-28T05:29:18.510Z,95052.78
2023-04-28T05:31:45.084Z,95056.59
2023-04-28T05:34:11.765Z,95049.78
2023-04-28T05:36:38.421Z,95043.06
2023-04-28T05:39:05.049Z,95039.97
2023-04-28T05:41:31.628Z,95045.63
2023-04-28T05:43:58.303Z,95054.94
2023-04-28T05:46:30.646Z,95058.00
2023-04-28T05:48:58.185Z,95052.13
2023-04-28T05:51:24.993Z,95058.75
2023-04-28T05:53:51.645Z,95063.09
2023-04-28T05:56:18.470Z,95062.22
2023-04-28T05:58:45.131Z,95060.53
2023-04-28T06:01:11.964Z,95061.66
2023-04-28T06:03:38.799Z,95061.38
2023-04-28T06:06:09.605Z,95062.81
2023-04-28T06:08:37.170Z,95060.59
2023-04-28T06:11:04.010Z,95066.59
2023-04-28T06:13:30.507Z,95056.44
2023-04-28T06:15:57.336Z,95059.84
2023-04-28T06:18:24.418Z,95056.78
2023-04-28T06:20:51.108Z,95056.38
2023-04-28T06:23:17.742Z,95058.63
2023-04-28T06:25:44.566Z,95056.94
2023-04-28T06:28:13.406Z,95064.06
2023-04-28T06:30:39.998Z,95061.56
2023-04-28T06:33:06.746Z,95064.50
2023-04-28T06:35:36.515Z,95067.84
2023-04-28T06:38:03.773Z,95047.91
2023-04-28T06:40:30.384Z,95054.03
2023-04-28T06:42:57.023Z,95047.63
2023-04-28T06:45:23.722Z,95045.91
2023-04-28T06:47:51.190Z,95053.00
2023-04-28T06:50:17.818Z,95064.50
2023-04-28T06:52:44.611Z,95056.66
2023-04-28T06:55:16.091Z,95064.50
2023-04-28T06:57:43.082Z,95056.59
2023-04-28T07:00:10.896Z,95058.28
2023-04-28T07:02:37.904Z,95065.38
2023-04-28T07:05:05.339Z,95064.72
2023-04-28T07:07:32.094Z,95062.78
2023-04-28T07:09:59.157Z,95067.63
2023-04-28T07:12:25.802Z,95057.44
2023-04-28T07:14:52.502Z,95067.97
2023-04-28T07:17:19.114Z,95066.34
2023-04-28T07:19:45.813Z,95066.06
2023-04-28T07:22:12.642Z,95072.63
2023-04-28T07:24:39.487Z,95075.81
2023-04-28T07:27:06.222Z,95076.66
2023-04-28T07:29:34.006Z,95076.06
2023-04-28T07:32:08.762Z,95081.66
2023-04-28T07:34:35.957Z,95094.09
2023-04-28T07:37:03.194Z,95098.91
2023-04-28T07:39:32.046Z,95098.84
2023-04-28T07:41:59.246Z,95095.41
2023-04-28T07:44:25.938Z,95082.13
2023-04-28T07:46:53.657Z,95076.78
2023-04-28T07:49:20.511Z,95088.69
2023-04-28T07:51:47.354Z,95085.84
2023-04-28T07:54:15.127Z,95077.19
2023-04-28T07:56:42.016Z,95088.91
2023-04-28T07:59:08.580Z,95085.97
2023-04-28T08:01:35.166Z,95083.44
2023-04-28T08:04:02.090Z,95098.03
2023-04-28T08:06:29.068Z,95092.06
2023-04-28T08:08:56.028Z,95096.16
2023-04-28T08:11:22.831Z,95096.91
2023-04-28T08:13:49.599Z,95088.44
2023-04-28T08:16:16.715Z,95109.31
2023-04-28T08:18:43.497Z,95104.94
2023-04-28T08:21:10.120Z,95102.91
2023-04-28T08:23:36.707Z,95105.69
2023-04-28T08:26:04.163Z,95118.00
2023-04-28T08:28:30.938Z,95114.00
2023-04-28T08:30:58.625Z,95105.00
2023-04-28T08:33:25.156Z,95106.44
2023-04-28T08:35:51.782Z,95109.28
2023-04-28T08:38:18.469Z,95120.47
2023-04-28T08:40:45.502Z,95119.38
2023-04-28T08:43:14.949Z,95123.78
2023-04-28T08:45:43.100Z,95125.38
2023-04-28T08:48:21.870Z,95120.16
2023-04-28T08:50:53.437Z,95120.91
2023-04-28T08:53:25.364Z,95129.97
2023-04-28T08:55:56.493Z,95126.81
2023-04-28T08:58:25.004Z,95128.81
2023-04-28T09:00:54.773Z,95123.59
2023-04-28T09:03:22.000Z,95122.03
2023-04-28T09:05:49.981Z,95133.31
2023-04-28T09:08:16.571Z,95143.63
2023-04-28T09:10:43.185Z,95149.97
2023-04-28T09:13:09.736Z,95171.53
2023-04-28T09:15:38.327Z,95172.22
2023-04-28T09:18:07.122Z,95158.00
2023-04-28T09:20:35.612Z,95150.97
2023-04-28T09:23:17.614Z,95164.03
2023-04-28T09:26:03.887Z,95155.78
2023-04-28T09:28:31.802Z,95158.59
2023-04-28T09:30:58.715Z,95152.31
2023-04-28T09:33:26.005Z,95154.47
2023-04-28T09:35:53.600Z,95153.22
2023-04-28T09:38:21.860Z,95150.91
2023-04-28T09:40:57.480Z,95150.34
2023-04-28T09:43:32.314Z,95154.97
2023-04-28T09:46:01.671Z,95149.88
2023-04-28T09:48:32.368Z,95150.97
2023-04-28T09:51:00.885Z,95151.59
2023-04-28T09:53:28.638Z,95153.41
2023-04-28T09:55:57.432Z,95146.19
2023-04-28T09:58:25.837Z,95151.50
2023-04-28T10:00:54.953Z,95150.97
2023-04-28T10:03:25.096Z,95143.94
2023-04-28T10:05:54.388Z,95141.03
2023-04-28T10:08:22.721Z,95143.16
2023-04-28T10:10:50.925Z,95141.38
2023-04-28T10:13:18.069Z,95140.47
2023-04-28T10:15:44.959Z,95140.00
2023-04-28T10:18:15.579Z,95141.97
2023-04-28T10:20:57.682Z,95132.28
2023-04-28T10:23:47.044Z,95144.47
2023-04-28T10:26:15.558Z,95143.28
2023-04-28T10:28:47.361Z,95143.28
2023-04-28T10:31:16.222Z,95143.38
2023-04-28T10:33:43.421Z,95139.25
2023-04-28T10:36:10.316Z,95139.03
2023-04-28T10:39:09.880Z,95146.59
2023-04-28T10:41:36.557Z,95143.81
2023-04-28T10:44:28.945Z,95139.59
2023-04-28T10:47:04.697Z,95141.59
2023-04-28T10:49:58.937Z,95135.72
2023-04-28T10:52:38.074Z,95143.63
2023-04-28T10:55:33.759Z,95147.63
2023-04-28T10:58:15.761Z,95132.41
2023-04-28T11:00:45.230Z,95117.28
2023-04-28T11:03:41.194Z,95122.59
2023-04-28T11:06:28.405Z,95120.16
2023-04-28T11:09:15.080Z,95115.66
2023-04-28T11:12:00.435Z,95117.78
2023-04-28T11:14:30.232Z,95119.59
2023-04-28T11:17:02.975Z,95121.06
2023-04-28T11:19:41.084Z,95118.25
2023-04-28T11:22:21.894Z,95115.28
2023-04-28T11:24:57.434Z,95127.47
2023-04-28T11:27:25.550Z,95125.22
2023-04-28T11:29:52.119Z,95130.63
2023-04-28T11:32:33.367Z,95125.38
2023-04-28T11:35:00.841Z,95120.78
2023-04-28T11:37:27.579Z,95111.25
2023-04-28T11:39:54.664Z,95103.63
2023-04-28T11:42:21.428Z,95102.09
2023-04-28T11:44:55.109Z,95101.19
2023-04-28T11:47:33.673Z,95087.84
2023-04-28T11:50:02.095Z,95093.16
2023-04-28T11:52:28.810Z,95098.75
2023-04-28T11:55:03.055Z,95094.84
2023-04-28T11:57:29.606Z,95094.25
2023-04-28T12:00:14.333Z,95102.19
2023-04-28T12:02:41.597Z,95093.34
2023-04-28T12:05:09.101Z,95098.63
2023-04-28T12:07:45.589Z,95086.84
2023-04-28T12:10:16.069Z,95087.69
2023-04-28T12:12:50.992Z,95084.06
2023-04-28T12:15:20.795Z,95081.69
2023-04-28T12:17:48.690Z,95084.66
2023-04-28T12:20:42.668Z,95077.97
2023-04-28T12:23:09.538Z,95073.41
2023-04-28T12:25:46.332Z,95078.03
2023-04-28T12:28:12.949Z,95073.38
2023-04-28T12:30:42.276Z,95072.09
2023-04-28T12:33:29.720Z,95056.59
2023-04-28T12:35:58.130Z,95056.69
2023-04-28T12:38:25.548Z,95049.47
2023-04-28T12:40:52.471Z,95043.88
2023-04-28T12:43:19.416Z,95038.84
2023-04-28T12:45:45.928Z,95048.78
2023-04-28T12:48:12.543Z,95045.47
2023-04-28T12:50:39.144Z,95035.66
2023-04-28T12:53:06.248Z,95029.22
2023-04-28T12:55:33.178Z,95029.38
2023-04-28T12:57:59.758Z,95021.22
2023-04-28T13:00:26.573Z,95026.75
2023-04-28T13:02:53.478Z,95027.13
2023-04-28T13:05:20.292Z,95025.88
2023-04-28T13:07:47.809Z,95028.88
2023-04-28T13:10:14.344Z,95026.81
2023-04-28T13:12:41.601Z,95026.53
2023-04-28T13:15:08.964Z,95030.63
2023-04-28T13:17:35.698Z,95020.19
2023-04-28T13:20:03.856Z,95023.81
2023-04-28T13:22:30.669Z,95008.09
2023-04-28T13:24:57.714Z,95001.63
2023-04-28T13:27:24.406Z,94992.31
2023-04-28T13:29:50.933Z,95005.66
2023-04-28T13:32:17.590Z,94998.00
2023-04-28T13:34:45.198Z,94995.06
2023-04-28T13:37:12.043Z,94996.25
2023-04-28T13:39:38.787Z,94991.94
2023-04-28T13:42:06.696Z,94996.19
2023-04-28T13:44:33.269Z,94991.88
2023-04-28T13:47:00.940Z,94987.56
2023-04-28T13:49:28.139Z,94996.50
2023-04-28T13:51:54.720Z,94986.78
2023-04-28T13:54:21.853Z,94982.41
2023-04-28T13:56:48.588Z,94986.31
2023-04-28T13:59:15.313Z,94976.59
2023-04-28T14:01:41.957Z,94980.25
2023-04-28T14:04:08.751Z,94973.50
2023-04-28T14:06:35.610Z,94973.88
2023-04-28T14:09:03.460Z,94977.38
2023-04-28T14:11:30.174Z,94981.16
2023-04-28T14:13:56.744Z,94974.81
2023-04-28T14:16:23.319Z,94991.09
2023-04-28T14:18:49.824Z,94977.03
2023-04-28T14:21:16.670Z,94965.41
2023-04-28T14:23:43.238Z,94972.34
2023-04-28T14:26:09.925Z,94953.94
2023-04-28T14:28:37.474Z,94950.97
2023-04-28T14:31:09.066Z,94953.44
2023-04-28T14:33:36.822Z,94956.13
2023-04-28T14:36:04.109Z,94947.91
2023-04-28T14:38:30.887Z,94935.59
2023-04-28T14:40:57.763Z,94940.50
2023-04-28T14:43:24.885Z,94948.53
2023-04-28T14:45:51.980Z,94946.97
2023-04-28T14:48:19.226Z,94943.56
2023-04-28T14:50:46.236Z,94933.47
2023-04-28T14:53:12.864Z,94931.28
2023-04-28T14:55:39.467Z,94931.91
2023-04-28T14:58:06.029Z,94930.38
2023-04-28T15:00:32.657Z,94926.56
2023-04-28T15:02:59.418Z,94918.00
2023-04-28T15:05:26.232Z,94917.94
2023-04-28T15:07:52.776Z,94917.31
2023-04-28T15:10:19.423Z,94919.47
2023-04-28T15:12:47.292Z,94915.72
2023-04-28T15:15:14.301Z,94916.56
2023-04-28T15:17:40.921Z,94906.47
2023-04-28T15:20:08.223Z,94911.75
2023-04-28T15:22:36.484Z,94902.06
2023-04-28T15:25:03.230Z,94903.16
2023-04-28T15:27:29.842Z,94904.06
2023-04-28T15:29:56.363Z,94903.56
2023-04-28T15:32:23.293Z,94895.28
2023-04-28T15:34:50.109Z,94892.66
2023-04-28T15:37:47.580Z,94887.31
2023-04-28T15:40:16.828Z,94883.13
2023-04-28T15:42:51.805Z,94876.44
2023-04-28T15:45:22.318Z,94877.81
2023-04-28T15:47:50.810Z,94876.47
2023-04-28T15:50:19.852Z,94876.31
2023-04-28T15:52:47.413Z,94867.38
2023-04-28T15:55:15.396Z,94870.44
2023-04-28T15:57:42.791Z,94869.44
2023-04-28T16:00:11.355Z,94852.47
2023-04-28T16:02:39.146Z,94859.13
2023-04-28T16:05:06.490Z,94866.16
2023-04-28T16:07:41.118Z,94860.66
2023-04-28T16:10:13.135Z,94857.84
2023-04-28T16:12:40.618Z,94868.50
2023-04-28T16:15:08.856Z,94867.38
2023-04-28T16:17:38.199Z,94867.13
2023-04-28T16:20:07.180Z,94853.34
2023-04-28T16:22:34.702Z,94861.59
2023-04-28T16:25:03.671Z,94873.09
2023-04-28T16:27:31.047Z,94877.09
2023-04-28T16:29:58.005Z,94864.66
2023-04-28T16:32:24.578Z,94875.66
2023-04-28T16:34:51.691Z,94866.72
2023-04-28T16:37:18.461Z,94861.94
2023-04-28T16:39:45.434Z,94873.19
2023-04-28T16:42:12.143Z,94877.41
2023-04-28T16:44:38.665Z,94874.09
2023-04-28T16:47:05.460Z,94869.50
2023-04-28T16:49:32.009Z,94866.81
2023-04-28T16:52:03.933Z,94873.50
2023-04-28T16:54:32.538Z,94874.22
2023-04-28T16:57:00.754Z,94883.63
2023-04-28T16:59:30.531Z,94884.81
2023-04-28T17:01:58.260Z,94887.84
2023-04-28T17:04:26.019Z,94892.25
2023-04-28T17:06:53.359Z,94891.56
2023-04-28T17:09:20.962Z,94891.47
2023-04-28T17:11:47.960Z,94892.81
2023-04-28T17:14:14.812Z,94885.63
2023-04-28T17:16:45.721Z,94898.38
2023-04-28T17:19:12.986Z,94900.00
2023-04-28T17:21:39.568Z,94892.94
2023-04-28T17:24:06.378Z,94882.25
2023-04-28T17:26:32.937Z,94887.06
2023-04-28T17:29:00.100Z,94890.81
2023-04-28T17:31:30.574Z,94886.53
2023-04-28T17:33:59.614Z,94888.63
2023-04-28T17:36:27.026Z,94882.22
2023-04-28T17:38:53.916Z,94893.66
2023-04-28T17:41:21.295Z,94910.94
2023-04-28T17:43:48.384Z,94900.22
2023-04-28T17:46:15.929Z,94916.59
2023-04-28T17:48:43.198Z,94921.75
2023-04-28T17:51:09.905Z,94920.25
2023-04-28T17:53:37.891Z,94918.31
2023-04-28T17:56:04.615Z,94908.31
2023-04-28T17:58:32.777Z,94910.81
2023-04-28T18:01:07.641Z,94919.28
2023-04-28T18:03:36.877Z,94910.03
2023-04-28T18:06:07.758Z,94908.69
2023-04-28T18:08:35.451Z,94910.78
2023-04-28T18:11:03.354Z,94899.59
2023-04-28T18:13:29.927Z,94906.22
2023-04-28T18:15:56.657Z,94911.34
2023-04-28T18:18:23.377Z,94906.16
2023-04-28T18:20:49.956Z,94904.78
2023-04-28T18:23:16.626Z,94907.78
2023-04-28T18:25:44.100Z,94903.56
2023-04-28T18:28:11.029Z,94911.41
2023-04-28T18:30:40.611Z,94911.03
2023-04-28T18:33:08.342Z,94923.59
2023-04-28T18:35:37.011Z,94925.19
2023-04-28T18:38:05.080Z,94922.47
2023-04-28T18:40:37.703Z,94923.97
2023-04-28T18:43:08.524Z,94916.72
2023-04-28T18:45:37.363Z,94918.78
2023-04-28T18:48:04.532Z,94913.94
2023-04-28T18:50:32.190Z,94912.63
2023-04-28T18:53:04.444Z,94910.06
2023-04-28T18:55:34.315Z,94917.09
2023-04-28T18:58:02.109Z,94915.59
2023-04-28T19:00:28.950Z,94918.69
2023-04-28T19:02:55.748Z,94935.91
2023-04-28T19:05:22.723Z,94939.97
2023-04-28T19:07:49.273Z,94941.69
2023-04-28T19:10:15.928Z,94947.88
2023-04-28T19:12:42.473Z,94941.78
2023-04-28T19:15:09.110Z,94954.50
2023-04-28T19:17:36.038Z,94957.59
2023-04-28T19:20:03.981Z,94963.66
2023-04-28T19:22:31.484Z,94961.84
2023-04-28T19:24:59.695Z,94969.84
2023-04-28T19:27:30.050Z,94972.94
2023-04-28T19:29:56.642Z,94975.38
2023-04-28T19:32:23.280Z,94989.03
2023-04-28T19:34:50.439Z,94990.59
2023-04-28T19:37:17.232Z,94998.06
2023-04-28T19:39:44.452Z,94989.22
2023-04-28T19:42:11.017Z,94997.47
2023-04-28T19:44:37.836Z,94995.63
2023-04-28T19:47:05.133Z,95000.97
2023-04-28T19:49:33.374Z,95011.97
2023-04-28T19:52:00.196Z,95015.03
2023-04-28T19:54:26.977Z,95034.44
2023-04-28T19:56:53.862Z,95041.88
2023-04-28T19:59:20.991Z,95033.28
2023-04-28T20:01:48.047Z,95038.09
2023-04-28T20:04:14.790Z,95041.81
2023-04-28T20:06:42.930Z,95031.44
2023-04-28T20:09:10.138Z,95039.69
2023-04-28T20:11:37.380Z,95029.16
2023-04-28T20:14:03.987Z,95028.16
2023-04-28T20:16:30.553Z,95008.91
2023-04-28T20:18:57.228Z,95018.97
2023-04-28T20:21:23.836Z,95017.56
2023-04-28T20:23:50.705Z,95025.56
2023-04-28T20:26:17.538Z,95021.41
2023-04-28T20:28:45.614Z,95016.47
2023-04-28T20:31:12.284Z,95010.72
2023-04-28T20:33:38.876Z,95025.44
2023-04-28T20:36:05.624Z,95016.81
2023-04-28T20:38:33.432Z,95032.13
2023-04-28T20:41:00.029Z,95014.09
2023-04-28T20:43:26.917Z,95027.03
2023-04-28T20:45:53.531Z,95019.47
2023-04-28T20:48:20.107Z,95019.56
2023-04-28T20:50:48.629Z,95024.28
2023-04-28T20:53:15.171Z,95040.75
2023-04-28T20:55:41.731Z,95038.25
2023-04-28T20:58:08.255Z,95033.13
2023-04-28T21:00:39.879Z,95034.28
2023-04-28T21:03:06.942Z,95028.94
2023-04-28T21:05:33.765Z,95012.66
2023-04-28T21:08:00.312Z,95024.84
2023-04-28T21:10:27.924Z,95034.72
2023-04-28T21:12:54.502Z,95045.47
2023-04-28T21:15:21.075Z,95038.97
2023-04-28T21:17:47.826Z,95036.41
2023-04-28T21:20:14.923Z,95047.16
2023-04-28T21:22:41.474Z,95048.06
2023-04-28T21:25:08.675Z,95043.06
2023-04-28T21:27:35.262Z,95053.03
2023-04-28T21:30:02.166Z,95057.19
2023-04-28T21:32:28.769Z,95051.88
2023-04-28T21:34:55.469Z,95063.69
2023-04-28T21:37:22.360Z,95075.41
2023-04-28T21:39:49.265Z,95077.97
2023-04-28T21:42:15.953Z,95088.28
2023-04-28T21:44:42.534Z,95102.66
2023-04-28T21:47:09.193Z,95069.16
2023-04-28T21:49:36.197Z,95063.03
2023-04-28T21:52:03.276Z,95055.03
2023-04-28T21:54:30.087Z,95047.75
2023-04-28T21:56:56.618Z,95061.63
2023-04-28T21:59:23.184Z,95061.91
2023-04-28T22:01:49.975Z,95050.31
2023-04-28T22:04:17.158Z,95055.22
2023-04-28T22:06:45.088Z,95057.38
2023-04-28T22:09:11.657Z,95069.72
2023-04-28T22:11:38.204Z,95062.75
2023-04-28T22:14:04.948Z,95077.84
2023-04-28T22:16:31.587Z,95074.56
2023-04-28T22:18:58.333Z,95062.72
2023-04-28T22:21:25.487Z,95035.00
2023-04-28T22:23:52.020Z,95080.66
2023-04-28T22:26:19.209Z,95089.84
2023-04-28T22:28:45.873Z,95099.19
2023-04-28T22:31:13.331Z,95096.91
2023-04-28T22:33:40.536Z,95100.56
2023-04-28T22:36:07.395Z,95096.72
2023-04-28T22:38:34.650Z,95099.63
2023-04-28T22:41:01.650Z,95098.91
2023-04-28T22:43:28.869Z,95101.38
2023-04-28T22:45:57.353Z,95106.31
2023-04-28T22:48:24.146Z,95108.84
2023-04-28T22:50:51.067Z,95108.66
2023-04-28T22:53:19.544Z,95106.00
2023-04-28T22:55:46.240Z,95107.44
2023-04-28T22:58:12.807Z,95110.56
2023-04-28T23:00:39.293Z,95092.31
2023-04-28T23:03:05.893Z,95096.13
2023-04-28T23:05:32.475Z,95096.97
2023-04-28T23:07:59.019Z,95100.41
2023-04-28T23:10:25.666Z,95105.13
2023-04-28T23:12:52.619Z,95090.06
2023-04-28T23:15:19.288Z,95087.34
2023-04-28T23:17:45.902Z,95094.13
2023-04-28T23:20:12.608Z,95098.47
2023-04-28T23:22:39.118Z,95093.44
2023-04-28T23:25:06.150Z,95084.00
2023-04-28T23:27:32.625Z,95095.81
2023-04-28T23:29:59.248Z,95096.78
2023-04-28T23:32:25.802Z,95096.19
2023-04-28T23:34:53.017Z,95089.16
2023-04-28T23:37:19.567Z,95086.25
2023-04-28T23:39:46.110Z,95067.16
2023-04-28T23:42:12.751Z,95071.56
2023-04-28T23:44:39.321Z,95066.88
2023-04-28T23:47:05.830Z,95068.06
2023-04-28T23:49:32.381Z,95065.56
2023-04-28T23:51:59.445Z,95048.06
2023-04-28T23:54:26.038Z,95073.88
2023-04-28T23:56:52.579Z,95064.09
2023-04-28T23:59:19.119Z,95071.56
